Tikaboo Peak, Nevada Weather observations

Data are for 10 minute period ending at time listed.
 Day   Time   Solar   Ave.   Ave.  Ave.  Vector  Max.   Baro.   Total    
  of    of     Rad.   Air    Rel.  Wind   Wind   Wind  Press.  Precip.   
Year   Day            Temp.  Hum.  Speed  Dir.   Gust                    
2016   (PST)  Kw/m2    F      %     mph   deg.    mph    mb.     in.     
-------------------------------------------------------------------------
 205   12:10   1.07   83.7    10   14.0    25    25.1   767.8    0.00 
 205   12:20   1.05   83.9    10   13.0    14    23.4   767.9    0.00 
 205   12:30   1.03   83.9    10   13.2    21    22.8   767.7    0.00 
 205   12:40   1.02   84.3    10    9.4    25    19.2   767.5    0.00 
 205   12:50   1.01   86.0    10    8.0    40    15.6   767.5    0.00 
 205   13:00   1.00   86.0    10    8.9    19    18.1   767.3    0.00 
 205   13:10   0.99   85.9    10   11.1    15    24.0   767.4    0.00 
 205   13:20   0.97   86.1    10    9.9    23    19.1   767.1    0.00 
 205   13:30   0.96   86.5    10    6.1    45    17.7   767.0    0.00 
 205   13:40   0.94   87.2     9    9.6    32    20.8   767.1    0.00 
 205   13:50   0.91   86.0    10   11.9    19    25.9   767.1    0.00 
 205   14:00   0.88   86.1    10   12.1    17    25.3   767.0    0.00 
 205   14:10   0.85   85.6    10   13.1    58    25.1   767.0    0.00 
 205   14:20   0.80   86.2    10   12.3    13    22.6   767.0    0.00 
 205   14:30   0.77   85.9    10   14.0    10    23.5   766.9    0.00 
 205   14:40   0.76   86.7     9   11.2    17    24.5   766.7    0.00 
 205   14:50   0.72   86.1     9   11.2    22    21.6   766.6    0.00 
 205   15:00   0.67   85.8    10   12.4    23    24.2   766.6    0.00 
 205   15:10   0.64   85.5    10   10.8    19    19.0   766.5    0.00 
 205   15:20   0.63   85.6     9    8.4    25    20.2   766.4    0.00 
 205   15:30   0.59   85.4     9   10.1    31    21.8   766.2    0.00 
 205   15:40   0.56   85.7     9   10.2    19    20.0   766.2    0.00 
 205   15:50   0.53   86.7     9   10.8    12    17.4   766.2    0.00 
 205   16:00   0.49   86.3     9    9.7    21    17.0   766.1    0.00 
 205   16:10   0.37   85.5     9   10.2    23    15.8   766.1    0.00 
 205   16:20   0.40   84.9     9    9.1    22    17.9   765.9    0.00 
 205   16:30   0.38   85.1     9   10.2    28    19.5   765.8    0.00 
 205   16:40   0.34   84.8     9    9.2    25    17.5   765.8    0.00 
 205   16:50   0.30   84.4     9    9.3    26    15.8   765.7    0.00 
 205   17:00   0.27   84.0     9    8.6    30    16.2   765.6    0.00 
 205   17:10   0.23   83.8     9    8.8    24    14.6   765.7    0.00 
 205   17:20   0.20   83.9     9    9.4    16    15.6   765.8    0.00 
 205   17:30   0.18   83.2     9    9.6    17    16.4   765.8    0.00 
 205   17:40   0.15   83.1    10   10.2    15    17.7   765.7    0.00 
 205   17:50   0.12   82.4    10   10.7    19    20.5   765.6    0.00 
 205   18:00   0.10   81.2    10   12.4    31    20.0   765.6    0.00 
 205   18:10   0.07   80.8    11   10.6    30    19.9   765.5    0.00 
 205   18:20   0.06   80.6    11    9.3    22    16.9   765.8    0.00 
 205   18:30   0.04   80.0    11   10.4    26    19.9   765.7    0.00 
 205   18:40   0.03   79.3    12   11.2    23    21.0   765.8    0.00 
 205   18:50   0.01   78.7    12    9.3    22    18.6   765.9    0.00 
 205   19:00   0.01   78.4    12    8.4    16    12.7   765.9    0.00 
 205   19:10   0.00   78.0    12    8.0    23    12.7   765.9    0.00 
 205   19:20   0.00   77.6    12    7.7    20    15.5   765.9    0.00 
 205   19:30   0.00   77.2    12    8.5    22    15.9   765.9    0.00 
 205   19:40   0.00   77.0    12   10.3    16    18.6   766.0    0.00 
 205   19:50   0.00   76.7    12   10.7    20    18.3   766.1    0.00 
 205   20:00   0.00   76.5    13   11.4    11    19.6   766.2    0.00 
 205   20:10   0.00   76.2    13    9.7    13    15.1   766.3    0.00 
 205   20:20   0.00   76.0    13    6.7     9    11.4   766.4    0.00 
 205   20:30   0.00   75.7    13   10.2    10    15.0   766.5    0.00 
 205   20:40   0.00   75.5    13   12.2    18    15.4   766.5    0.00 
 205   20:50   0.00   75.3    14   11.9    24    15.5   766.5    0.00 
 205   21:00   0.00   75.2    13   10.9    28    14.8   766.6    0.00 
 205   21:10   0.00   74.9    14    9.4    33    13.5   766.6    0.00 
 205   21:20   0.00   74.6    14    8.6    31    11.0   766.6    0.00 
 205   21:30   0.00   74.3    14    9.9    37    14.8   766.6    0.00 
 205   21:40   0.00   74.3    14   10.5    36    13.7   766.6    0.00 
 205   21:50   0.00   74.1    14   10.2    34    13.7   766.7    0.00 
 205   22:00   0.00   73.9    14   10.6    33    13.8   766.7    0.00 
 205   22:10   0.00   73.7    15   10.2    35    12.8   766.7    0.00 
 205   22:20   0.00   73.7    15   11.6    35    14.8   766.6    0.00 
 205   22:30   0.00   73.5    15   12.5    36    16.2   766.7    0.00 
 205   22:40   0.00   73.3    16   13.1    38    16.9   766.6    0.00 
 205   22:50   0.00   73.1    16   12.9    37    18.4   766.6    0.00 
 205   23:00   0.00   72.8    17   11.1    38    16.8   766.7    0.00 
 205   23:10   0.00   72.3    17   12.4    37    18.4   766.6    0.00 
 205   23:20   0.00   72.7    17   13.1    33    18.1   766.6    0.00 
 205   23:30   0.00   72.8    17   14.5    24    18.4   766.6    0.00 
 205   23:40   0.00   72.7    17   15.7    26    20.2   766.6    0.00 
 205   23:50   0.00   72.7    17   13.1    28    17.7   766.6    0.00 
 206    0:00   0.00   72.3    17   10.9    34    13.3   766.7    0.00 
 206    0:10   0.00   72.1    17   13.6    26    18.5   766.7    0.00 
 206    0:20   0.00   72.2    17   13.4    37    19.1   766.6    0.00 
 206    0:30   0.00   72.0    18   14.9    36    18.3   766.6    0.00 
 206    0:40   0.00   71.8    17   15.2    37    18.1   766.6    0.00 
 206    0:50   0.00   71.9    17   14.7    37    17.3   766.5    0.00 
 206    1:00   0.00   71.8    17   11.2    40    14.8   766.6    0.00 
 206    1:10   0.00   71.3    18   11.7    38    15.1   766.5    0.00 
 206    1:20   0.00   71.2    18    7.9    42    15.9   766.4    0.00 
 206    1:30   0.00   70.6    18    5.7    39    13.0   769.6    0.00 
 206    1:40   0.00   70.3    18    5.6    43    12.1   766.4    0.00 
 206    1:50   0.00   70.3    18    4.9    42    13.0   766.4    0.00 
 206    2:00   0.00   70.5    17    7.2    42    11.8   766.3    0.00 
 206    2:10   0.00   70.6    17    3.3    47     9.5   766.3    0.00 
 206    2:20   0.00   70.8    16    6.4    46    11.6   766.3    0.00 
 206    2:30   0.00   70.8    16    5.3    45    10.5   766.4    0.00 
 206    2:40   0.00   70.8    16    5.7    47    10.7   766.5    0.00 
 206    2:50   0.00   71.1    16    6.9    46    13.2   766.5    0.00 
 206    3:00   0.00   70.8    16    4.2    53     8.2   766.5    0.00 
 206    3:10   0.00   70.6    16    4.6    43     9.9   766.5    0.00 
 206    3:20   0.00   70.5    16    6.9    41    10.7   766.4    0.00 
 206    3:30   0.00   70.3    16    4.7    46    12.7   766.4    0.00 
 206    3:40   0.00   70.4    16    6.4    44    12.1   766.4    0.00 
 206    3:50   0.00   70.2    17    6.3    41    10.8   766.4    0.00 
 206    4:00   0.00   69.9    17    6.3    41    10.5   766.4    0.00 
 206    4:10   0.00   69.9    17    6.5    43    10.4   766.4    0.00 
 206    4:20   0.00   70.0    17    3.4    46     9.2   766.4    0.00 
 206    4:30   0.00   69.8    17    5.0    42    11.0   766.5    0.00 
 206    4:40   0.00   70.0    17    5.5    47    11.2   766.6    0.00 
 206    4:50   0.01   69.9    17    3.8    51     7.7   766.7    0.00 
 206    5:00   0.03   70.4    17    6.5    41    10.9   766.7    0.00 
 206    5:10   0.06   71.5    16    6.3    38    11.0   766.7    0.00 
 206    5:20   0.09   72.7    16    5.5    43     9.2   766.7    0.00 
 206    5:30   0.13   74.4    15    5.9    44     8.8   766.8    0.00 
 206    5:40   0.17   75.6    15    7.2    34     9.9   766.8    0.00 
 206    5:50   0.20   76.5    14    4.5    38     8.5   767.0    0.00 
 206    6:00   0.24   78.0    14    4.2    28     7.1   767.1    0.00 
 206    6:10   0.28   79.1    14    3.0    19     5.1   767.1    0.00 
 206    6:20   0.32   79.9    13    1.8    27     3.7   767.1    0.00 
 206    6:30   0.36   78.7    14    2.6   177     4.5   767.3    0.00 
 206    6:40   0.40   77.1    14    3.6   167     4.7   767.3    0.00 
 206    6:50   0.44   78.5    14    4.2   181     6.6   767.3    0.00 
 206    7:00   0.48   79.8    14    5.4   186     6.1   767.4    0.00 
 206    7:10   0.52   80.9    14    4.7   184     6.1   767.3    0.00 
 206    7:20   0.56   81.1    14    4.1   187     6.5   767.4    0.00 
 206    7:30   0.59   80.8    14    3.9   183     5.8   767.3    0.00 
 206    7:40   0.63   80.8    14    3.6   180     6.7   767.4    0.00 
 206    7:50   0.67   81.0    14    3.2   182     5.7   767.4    0.00 
 206    8:00   0.70   81.3    13    4.7   177     7.5   767.5    0.00 
 206    8:10   0.73   78.7    14    4.8   170     7.2   767.4    0.00 
 206    8:20   0.77   78.8    13    5.0   171     7.5   767.5    0.00 
 206    8:30   0.80   80.1    12    6.4   148    11.6   767.5    0.00 
 206    8:40   0.82   80.4    12    5.9   150    10.7   767.5    0.00 
 206    8:50   0.85   79.9    12    5.1   160     9.6   767.4    0.00 
 206    9:00   0.88   81.0    12    5.9   160     9.9   767.5    0.00 
 206    9:10   0.91   80.5    12    4.1   168     9.4   767.7    0.00 
 206    9:20   0.93   82.6    12    6.2   179    12.0   767.7    0.00 
 206    9:30   0.95   82.0    12    7.0   178    13.4   767.7    0.00 
 206    9:40   0.97   83.0    12    3.6    25    11.4   767.6    0.00 
 206    9:50   0.99   84.3    12    4.3    29     8.9   767.6    0.00 
 206   10:00   1.00   84.3    12    4.5    38    10.2   767.6    0.00 
 206   10:10   1.02   84.3    12    3.5    31    11.0   767.7    0.00 
 206   10:20   1.03   83.8    12    3.3   134    11.2   767.7    0.00 
 206   10:30   1.04   82.8    13    4.8   164    13.4   767.7    0.00 
 206   10:40   1.05   84.0    13    5.4   170    14.8   767.8    0.00 
 206   10:50   1.06   83.9    13    9.8   180    21.7   767.8    0.00 
 206   11:00   1.07   82.8    13    8.3   170    18.0   767.7    0.00 
 206   11:10   1.07   81.6    14   10.2   168    22.2   767.7    0.00 
 206   11:20   1.08   81.0    16   11.3   174    22.0   767.7    0.00 
 206   11:30   1.07   81.8    16   12.3   184    25.9   767.7    0.00 
 206   11:40   1.07   82.6    15   11.5   183    22.2   767.6    0.00 
 206   11:50   1.08   82.5    15   12.8   180    23.7   767.6    0.00 
 206   12:00   1.07   83.4    15   11.2   181    26.6   767.5    0.00 

Return to Tikaboo Peak graphs page.


Western Regional Climate Center,wrcc@dri.edu